createdAt,value
2022-11-30T00:01:15.985Z,1.37
2022-11-30T00:06:23.346Z,1.32
2022-11-30T00:11:28.640Z,1.32
2022-11-30T00:16:32.032Z,1.29
2022-11-30T00:21:34.954Z,1.27
2022-11-30T00:26:38.068Z,1.26
2022-11-30T00:31:41.012Z,1.31
2022-11-30T00:36:43.953Z,1.32
2022-11-30T00:41:46.900Z,1.32
2022-11-30T00:46:49.713Z,1.32
2022-11-30T00:51:53.050Z,1.35
2022-11-30T00:56:56.261Z,1.31
2022-11-30T01:01:59.382Z,1.25
2022-11-30T01:07:02.226Z,1.24
2022-11-30T01:12:05.616Z,1.30
2022-11-30T01:17:08.523Z,1.33
2022-11-30T01:22:11.874Z,1.36
2022-11-30T01:27:14.709Z,1.37
2022-11-30T01:32:17.818Z,1.40
2022-11-30T01:37:20.732Z,1.37
2022-11-30T01:42:23.600Z,1.35
2022-11-30T01:47:39.509Z,1.34
2022-11-30T01:52:49.056Z,1.37
2022-11-30T01:58:20.222Z,1.42
2022-11-30T02:03:57.061Z,1.40
2022-11-30T02:09:00.085Z,1.37
2022-11-30T02:14:58.698Z,1.39
2022-11-30T02:20:38.388Z,1.35
2022-11-30T02:26:12.198Z,1.33
2022-11-30T02:31:20.466Z,1.32
2022-11-30T02:36:23.382Z,1.35
2022-11-30T02:41:26.192Z,1.39
2022-11-30T02:46:44.153Z,1.41
2022-11-30T02:51:47.088Z,1.42
2022-11-30T02:56:50.013Z,1.47
2022-11-30T03:01:53.423Z,1.52
2022-11-30T03:07:16.456Z,1.53
2022-11-30T03:12:19.295Z,1.50
2022-11-30T03:17:23.670Z,1.41
2022-11-30T03:22:26.926Z,1.41
2022-11-30T03:27:30.037Z,1.49
2022-11-30T03:32:33.009Z,1.50
2022-11-30T03:37:36.210Z,1.51
2022-11-30T03:42:39.116Z,1.48
2022-11-30T03:47:43.162Z,1.48
2022-11-30T03:52:46.434Z,1.48
2022-11-30T03:57:53.211Z,1.48
2022-11-30T04:02:56.168Z,1.45
2022-11-30T04:08:00.267Z,1.40
2022-11-30T04:13:03.405Z,1.43
2022-11-30T04:18:06.439Z,1.47
2022-11-30T04:23:12.631Z,1.47
2022-11-30T04:28:16.493Z,1.45
2022-11-30T04:33:19.361Z,1.43
2022-11-30T04:38:23.695Z,1.42
2022-11-30T04:43:26.937Z,1.45
2022-11-30T04:48:29.887Z,1.47
2022-11-30T04:53:34.930Z,1.49
2022-11-30T04:58:39.170Z,1.49
2022-11-30T05:03:43.122Z,1.45
2022-11-30T05:08:47.174Z,1.44
2022-11-30T05:13:50.038Z,1.41
2022-11-30T05:18:52.859Z,1.41
2022-11-30T05:23:55.732Z,1.39
2022-11-30T05:28:58.616Z,1.45
2022-11-30T05:34:01.560Z,1.46
2022-11-30T05:39:04.766Z,1.45
2022-11-30T05:44:08.855Z,1.40
2022-11-30T05:49:13.365Z,1.41
2022-11-30T05:54:16.264Z,1.42
2022-11-30T05:59:19.151Z,1.47
2022-11-30T06:04:22.855Z,1.43
2022-11-30T06:09:26.240Z,1.45
2022-11-30T06:14:29.054Z,1.41
2022-11-30T06:19:31.895Z,1.40
2022-11-30T06:24:34.724Z,1.37
2022-11-30T06:29:37.539Z,1.39
2022-11-30T06:34:40.894Z,1.44
2022-11-30T06:40:05.384Z,1.46
2022-11-30T06:45:07.556Z,1.44
2022-11-30T06:50:10.473Z,1.42
2022-11-30T06:56:15.697Z,1.47
2022-11-30T07:01:18.748Z,1.53
2022-11-30T07:06:21.668Z,1.59
2022-11-30T07:11:32.257Z,1.62
2022-11-30T07:16:37.133Z,1.61
2022-11-30T07:21:40.053Z,1.59
2022-11-30T07:26:42.818Z,1.60
2022-11-30T07:31:52.496Z,1.58
2022-11-30T07:36:55.471Z,1.56
2022-11-30T07:41:58.342Z,1.52
2022-11-30T07:47:01.594Z,1.56
2022-11-30T07:52:04.978Z,1.58
2022-11-30T07:57:07.845Z,1.54
2022-11-30T08:02:11.146Z,1.54
2022-11-30T08:07:14.843Z,1.54
2022-11-30T08:12:17.890Z,1.56
2022-11-30T08:17:20.711Z,1.60
2022-11-30T08:22:23.881Z,1.61
2022-11-30T08:27:26.800Z,1.62
2022-11-30T08:32:29.689Z,1.64
2022-11-30T08:37:32.653Z,1.68
2022-11-30T08:42:35.608Z,1.72
2022-11-30T08:47:38.530Z,1.68
2022-11-30T08:52:41.526Z,1.64
2022-11-30T08:57:44.353Z,1.67
2022-11-30T09:02:47.352Z,1.64
2022-11-30T09:07:50.393Z,1.60
2022-11-30T09:12:53.779Z,1.59
2022-11-30T09:17:56.676Z,1.61
2022-11-30T09:22:59.877Z,1.60
2022-11-30T09:28:04.254Z,1.60
2022-11-30T09:33:08.882Z,1.58
2022-11-30T09:38:11.779Z,1.60
2022-11-30T09:44:09.836Z,1.60
2022-11-30T09:49:22.484Z,1.64
2022-11-30T09:54:35.676Z,1.67
2022-11-30T09:59:49.014Z,1.77
2022-11-30T10:04:51.997Z,1.86
2022-11-30T10:15:54.507Z,1.91
2022-11-30T10:21:17.151Z,1.89
2022-11-30T10:26:36.276Z,1.93
2022-11-30T10:31:41.569Z,2.00
2022-11-30T10:36:51.749Z,2.04
2022-11-30T10:42:02.672Z,2.05
2022-11-30T10:47:20.385Z,2.08
2022-11-30T10:52:35.302Z,2.08
2022-11-30T10:57:38.575Z,2.02
2022-11-30T11:02:47.375Z,1.97
2022-11-30T11:08:05.767Z,2.02
2022-11-30T11:13:40.164Z,2.03
2022-11-30T11:18:57.209Z,2.01
2022-11-30T11:24:00.638Z,2.02
2022-11-30T11:29:03.602Z,2.04
2022-11-30T11:34:23.839Z,2.14
2022-11-30T11:39:27.475Z,2.12
2022-11-30T11:44:31.940Z,2.12
2022-11-30T11:49:36.973Z,2.15
2022-11-30T11:54:55.402Z,2.16
2022-11-30T12:00:12.530Z,2.19
2022-11-30T12:05:57.206Z,2.24
2022-11-30T12:11:14.466Z,2.26
2022-11-30T12:17:12.853Z,2.19
2022-11-30T12:22:27.121Z,2.09
2022-11-30T12:28:07.955Z,2.08
2022-11-30T12:34:00.961Z,2.04
2022-11-30T12:39:29.946Z,2.08
2022-11-30T12:44:58.138Z,2.10
2022-11-30T12:50:40.978Z,2.07
2022-11-30T12:56:16.464Z,2.02
2022-11-30T13:02:03.784Z,2.07
2022-11-30T13:07:50.719Z,2.11
2022-11-30T13:12:54.510Z,2.07
2022-11-30T13:17:57.367Z,2.10
2022-11-30T13:23:11.202Z,2.10
2022-11-30T13:28:41.741Z,2.08
2022-11-30T13:33:49.700Z,2.10
2022-11-30T13:39:14.588Z,2.16
2022-11-30T13:44:38.042Z,2.19
2022-11-30T13:49:41.225Z,2.19
2022-11-30T13:54:50.638Z,2.17
2022-11-30T13:59:55.527Z,2.19
2022-11-30T14:05:17.652Z,2.19
2022-11-30T14:10:32.858Z,2.20
2022-11-30T14:15:38.870Z,2.19
2022-11-30T14:20:53.838Z,2.22
2022-11-30T14:26:05.120Z,2.25
2022-11-30T14:31:27.302Z,2.25
2022-11-30T14:36:38.230Z,2.18
2022-11-30T14:41:41.804Z,2.18
2022-11-30T14:46:45.274Z,2.20
2022-11-30T14:52:07.709Z,2.22
2022-11-30T14:58:03.977Z,2.20
2022-11-30T15:03:25.256Z,2.26
2022-11-30T15:08:44.637Z,2.23
2022-11-30T15:13:57.401Z,2.20
2022-11-30T15:19:23.552Z,2.09
2022-11-30T15:24:27.016Z,2.05
2022-11-30T15:29:36.757Z,2.10
2022-11-30T15:35:07.648Z,2.05
2022-11-30T15:40:15.737Z,2.01
2022-11-30T15:45:32.660Z,2.07
2022-11-30T15:50:39.465Z,2.06
2022-11-30T15:55:46.590Z,2.06
2022-11-30T16:01:26.010Z,2.06
2022-11-30T16:06:45.578Z,2.11
2022-11-30T16:11:56.841Z,2.08
2022-11-30T16:17:02.928Z,2.09
2022-11-30T16:22:13.047Z,2.03
2022-11-30T16:27:18.265Z,2.02
2022-11-30T16:32:23.369Z,2.05
2022-11-30T16:37:26.175Z,2.04
2022-11-30T16:42:29.208Z,2.02
2022-11-30T16:47:32.623Z,2.03
2022-11-30T16:52:35.573Z,2.03
2022-11-30T16:57:39.677Z,2.06
2022-11-30T17:03:08.368Z,2.03
2022-11-30T17:08:12.372Z,2.01
2022-11-30T17:13:16.066Z,1.99
2022-11-30T17:18:20.598Z,1.98
2022-11-30T17:23:23.493Z,1.93
2022-11-30T17:28:26.264Z,1.94
2022-11-30T17:33:33.682Z,1.97
2022-11-30T17:38:37.693Z,1.97
2022-11-30T17:43:40.970Z,1.95
2022-11-30T17:48:44.716Z,1.99
2022-11-30T17:53:49.603Z,2.03
2022-11-30T17:58:52.868Z,2.06
2022-11-30T18:03:55.868Z,2.08
2022-11-30T18:08:58.740Z,2.09
2022-11-30T18:14:03.082Z,2.14
2022-11-30T18:19:12.032Z,2.16
2022-11-30T18:24:14.859Z,2.15
2022-11-30T18:29:17.724Z,2.14
2022-11-30T18:34:20.894Z,2.21
2022-11-30T18:39:23.701Z,2.24
2022-11-30T18:44:26.500Z,2.24
2022-11-30T18:49:29.326Z,2.23
2022-11-30T18:54:32.401Z,2.28
2022-11-30T18:59:35.251Z,2.29
2022-11-30T19:04:41.078Z,2.32
2022-11-30T19:09:44.166Z,2.30
2022-11-30T19:14:48.957Z,2.34
2022-11-30T19:19:52.094Z,2.37
2022-11-30T19:24:54.978Z,2.33
2022-11-30T19:29:57.945Z,2.28
2022-11-30T19:35:00.876Z,2.33
2022-11-30T19:40:05.768Z,2.34
2022-11-30T19:45:09.478Z,2.36
2022-11-30T19:50:12.349Z,2.33
2022-11-30T19:55:17.424Z,2.34
2022-11-30T20:00:21.705Z,2.34
2022-11-30T20:05:24.582Z,2.35
2022-11-30T20:10:32.013Z,2.31
2022-11-30T20:15:39.785Z,2.29
2022-11-30T20:20:43.741Z,2.23
2022-11-30T20:25:46.634Z,2.18
2022-11-30T20:30:49.576Z,2.12
2022-11-30T20:35:52.688Z,2.14
2022-11-30T20:40:56.078Z,2.20
2022-11-30T20:46:00.136Z,2.22
2022-11-30T20:51:30.072Z,2.20
2022-11-30T20:56:36.573Z,2.15
2022-11-30T21:01:44.277Z,2.18
2022-11-30T21:06:48.523Z,2.18
2022-11-30T21:11:51.364Z,2.17
2022-11-30T21:16:54.814Z,2.15
2022-11-30T21:21:59.362Z,2.19
2022-11-30T21:27:02.427Z,2.21
2022-11-30T21:32:05.364Z,2.21
2022-11-30T21:37:08.184Z,2.19
2022-11-30T21:42:10.958Z,2.21
2022-11-30T21:47:14.799Z,2.22
2022-11-30T21:52:19.593Z,2.19
2022-11-30T21:57:22.629Z,2.14
2022-11-30T22:02:26.602Z,2.16
2022-11-30T22:07:31.905Z,2.19
2022-11-30T22:12:35.019Z,2.20
2022-11-30T22:17:37.949Z,2.18
2022-11-30T22:22:40.800Z,2.18
2022-11-30T22:27:43.596Z,2.17
2022-11-30T22:32:46.448Z,2.12
2022-11-30T22:37:49.990Z,2.08
2022-11-30T22:42:53.220Z,2.12
2022-11-30T22:47:57.703Z,2.14
2022-11-30T22:53:03.266Z,2.14
2022-11-30T22:58:06.698Z,2.08
2022-11-30T23:03:09.609Z,2.10
2022-11-30T23:08:12.503Z,2.09
2022-11-30T23:13:15.344Z,2.05
2022-11-30T23:18:18.518Z,2.07
2022-11-30T23:23:22.971Z,2.12
2022-11-30T23:28:26.206Z,2.13
2022-11-30T23:33:30.527Z,2.12
2022-11-30T23:38:34.245Z,2.10
2022-11-30T23:43:37.329Z,2.08
2022-11-30T23:48:41.415Z,2.04
2022-11-30T23:53:44.917Z,2.06
2022-11-30T23:58:48.153Z,2.08
